Terminal Aerodrome Forecast
Issued by NWS Mt. Holly, NJ

Home | Current Version | Previous Version | Text Only | Print | Product List | Glossary On
Versions: 1 2 3 4 5 6 7 8 9 10 11 12 13 14 15 16 17 18 19 20 21
000
FTUS41 KPHI 222300 RRA
TAFRDG
TAF
KRDG 222344Z 2300/2324 04005KT P6SM -RA OVC035
     FM230100 05004KT 5SM -RA BR OVC015
     FM230400 VRB03KT 4SM -RA BR BKN006
     FM230500 VRB03KT 2SM -RA BR OVC004
     FM231700 08005KT 5SM BR OVC006=

USA.gov is the U.S. government's official web portal to all federal, state and local government web resources and services.